createdAt,value
2023-05-01T00:00:16.234Z,4.03
2023-05-01T00:05:46.277Z,3.95
2023-05-01T00:10:56.259Z,3.89
2023-05-01T00:16:11.732Z,3.84
2023-05-01T00:21:21.551Z,3.79
2023-05-01T00:26:32.452Z,3.75
2023-05-01T00:31:43.145Z,3.73
2023-05-01T00:36:52.892Z,3.68
2023-05-01T00:42:02.488Z,3.57
2023-05-01T00:47:12.526Z,3.46
2023-05-01T00:52:22.176Z,3.44
2023-05-01T00:57:32.572Z,3.48
2023-05-01T01:02:42.533Z,3.48
2023-05-01T01:08:01.001Z,3.31
2023-05-01T01:13:21.283Z,3.14
2023-05-01T01:18:42.718Z,3.20
2023-05-01T01:24:22.975Z,3.25
2023-05-01T01:29:58.379Z,3.20
2023-05-01T01:35:14.474Z,3.21
2023-05-01T01:40:31.604Z,3.22
2023-05-01T01:45:45.029Z,3.19
2023-05-01T01:50:59.107Z,3.15
2023-05-01T01:56:11.054Z,3.10
2023-05-01T02:01:23.302Z,2.93
2023-05-01T02:06:35.434Z,2.92
2023-05-01T02:11:46.758Z,2.89
2023-05-01T02:16:59.059Z,2.84
2023-05-01T02:22:11.159Z,2.85
2023-05-01T02:27:25.884Z,2.86
2023-05-01T02:32:35.927Z,2.81
2023-05-01T02:37:46.436Z,2.72
2023-05-01T02:42:57.196Z,2.65
2023-05-01T02:48:09.704Z,2.67
2023-05-01T02:53:19.814Z,2.75
2023-05-01T02:58:32.729Z,2.76
2023-05-01T03:03:42.377Z,2.66
2023-05-01T03:08:52.145Z,2.60
2023-05-01T03:14:01.974Z,2.62
2023-05-01T03:19:11.610Z,2.69
2023-05-01T03:24:21.338Z,2.71
2023-05-01T03:29:31.467Z,2.75
2023-05-01T03:34:41.532Z,2.83
2023-05-01T03:39:51.706Z,2.91
2023-05-01T03:45:01.666Z,3.01
2023-05-01T03:50:14.905Z,3.08
2023-05-01T03:55:24.840Z,3.15
2023-05-01T04:00:35.667Z,3.20
2023-05-01T04:05:45.615Z,3.34
2023-05-01T04:10:55.391Z,3.51
2023-05-01T04:16:05.390Z,3.69
2023-05-01T04:21:18.077Z,3.82
2023-05-01T04:26:28.425Z,3.94
2023-05-01T04:31:38.345Z,4.14
2023-05-01T04:36:48.094Z,4.35
2023-05-01T04:41:58.132Z,4.51
2023-05-01T04:47:08.745Z,4.65
2023-05-01T04:52:18.582Z,4.81
2023-05-01T04:57:28.167Z,4.96
2023-05-01T05:02:37.940Z,5.13
2023-05-01T05:07:47.580Z,5.29
2023-05-01T05:12:57.539Z,5.45
2023-05-01T05:18:07.572Z,5.64
2023-05-01T05:23:17.363Z,5.85
2023-05-01T05:28:27.473Z,6.06
2023-05-01T05:33:37.291Z,6.26
2023-05-01T05:38:47.508Z,6.44
2023-05-01T05:43:57.232Z,6.65
2023-05-01T05:49:07.005Z,6.90
2023-05-01T05:54:16.835Z,7.04
2023-05-01T05:59:26.787Z,7.21
2023-05-01T06:04:36.698Z,7.39
2023-05-01T06:09:46.324Z,7.58
2023-05-01T06:14:56.079Z,7.72
2023-05-01T06:20:07.136Z,7.76
2023-05-01T06:25:17.629Z,7.87
2023-05-01T06:30:27.341Z,7.99
2023-05-01T06:35:37.167Z,8.10
2023-05-01T06:40:47.775Z,8.28
2023-05-01T06:45:57.360Z,8.47
2023-05-01T06:51:07.424Z,8.64
2023-05-01T06:56:17.634Z,8.86
2023-05-01T07:01:27.507Z,9.01
2023-05-01T07:06:37.722Z,9.28
2023-05-01T07:11:47.699Z,9.53
2023-05-01T07:16:58.802Z,9.68
2023-05-01T07:22:08.614Z,9.82
2023-05-01T07:27:18.252Z,9.91
2023-05-01T07:32:28.120Z,10.04
2023-05-01T07:37:37.781Z,10.18
2023-05-01T07:42:47.387Z,10.37
2023-05-01T07:47:57.581Z,10.61
2023-05-01T07:53:07.706Z,10.82
2023-05-01T07:58:17.780Z,10.76
2023-05-01T08:03:29.901Z,10.93
2023-05-01T08:08:39.864Z,10.94
2023-05-01T08:13:49.731Z,11.23
2023-05-01T08:18:59.797Z,11.29
2023-05-01T08:24:12.945Z,11.43
2023-05-01T08:29:22.800Z,11.36
2023-05-01T08:34:32.546Z,11.44
2023-05-01T08:39:42.214Z,11.57
2023-05-01T08:44:54.626Z,11.93
2023-05-01T08:50:05.227Z,12.14
2023-05-01T08:55:17.921Z,12.17
2023-05-01T09:00:28.966Z,12.40
2023-05-01T09:05:39.150Z,12.63
2023-05-01T09:10:52.752Z,12.75
2023-05-01T09:16:02.791Z,12.89
2023-05-01T09:21:13.644Z,12.74
2023-05-01T09:26:24.017Z,12.62
2023-05-01T09:31:35.260Z,12.60
2023-05-01T09:36:49.147Z,12.95
2023-05-01T09:41:59.345Z,13.21
2023-05-01T09:47:09.693Z,13.23
2023-05-01T09:52:19.454Z,13.10
2023-05-01T09:57:43.202Z,13.21
2023-05-01T10:02:53.825Z,13.66
2023-05-01T10:08:10.598Z,13.96
2023-05-01T10:13:20.905Z,14.10
2023-05-01T10:18:31.526Z,14.18
2023-05-01T10:23:41.544Z,14.26
2023-05-01T10:28:52.916Z,14.38
2023-05-01T10:34:03.285Z,14.45
2023-05-01T10:39:37.176Z,14.33
2023-05-01T10:44:48.324Z,14.58
2023-05-01T10:50:12.285Z,14.66
2023-05-01T10:55:43.904Z,14.77
2023-05-01T11:01:34.176Z,14.71
2023-05-01T11:07:19.731Z,14.88
2023-05-01T11:12:54.059Z,15.06
2023-05-01T11:18:06.437Z,15.10
2023-05-01T11:23:24.131Z,15.20
2023-05-01T11:28:37.283Z,15.27
2023-05-01T11:33:46.956Z,15.41
2023-05-01T11:38:58.756Z,15.48
2023-05-01T11:44:08.852Z,15.52
2023-05-01T11:49:27.876Z,15.77
2023-05-01T11:54:52.827Z,15.77
2023-05-01T12:00:02.578Z,15.48
2023-05-01T12:05:23.777Z,15.59
2023-05-01T12:10:35.343Z,15.70
2023-05-01T12:15:49.166Z,15.65
2023-05-01T12:20:59.807Z,15.68
2023-05-01T12:26:24.001Z,15.86
2023-05-01T12:31:35.258Z,16.02
2023-05-01T12:36:54.137Z,16.17
2023-05-01T12:42:04.191Z,16.53
2023-05-01T12:47:15.690Z,16.58
2023-05-01T12:52:31.758Z,16.72
2023-05-01T12:57:55.245Z,16.81
2023-05-01T13:03:10.162Z,16.79
2023-05-01T13:08:28.210Z,16.77
2023-05-01T13:13:40.234Z,16.80
2023-05-01T13:18:51.936Z,16.88
2023-05-01T13:24:04.040Z,16.68
2023-05-01T13:29:19.114Z,16.63
2023-05-01T13:34:33.476Z,16.79
2023-05-01T13:39:46.984Z,16.84
2023-05-01T13:44:59.222Z,16.88
2023-05-01T13:50:14.638Z,16.90
2023-05-01T13:55:26.046Z,17.04
2023-05-01T14:00:36.731Z,17.34
2023-05-01T14:05:47.271Z,17.32
2023-05-01T14:10:57.118Z,17.39
2023-05-01T14:16:12.031Z,17.48
2023-05-01T14:21:23.081Z,17.52
2023-05-01T14:26:34.779Z,17.56
2023-05-01T14:31:46.290Z,17.61
2023-05-01T14:36:58.622Z,17.66
2023-05-01T14:42:09.949Z,17.72
2023-05-01T14:47:23.635Z,17.86
2023-05-01T14:52:33.764Z,17.68
2023-05-01T14:57:43.532Z,17.58
2023-05-01T15:02:54.031Z,17.68
2023-05-01T15:08:04.929Z,17.69
2023-05-01T15:13:14.752Z,17.66
2023-05-01T15:18:25.385Z,17.64
2023-05-01T15:23:37.351Z,17.75
2023-05-01T15:28:47.166Z,17.82
2023-05-01T15:33:57.736Z,18.32
2023-05-01T15:39:13.709Z,18.89
2023-05-01T15:44:23.503Z,19.60
2023-05-01T15:49:33.552Z,20.12
2023-05-01T15:54:43.507Z,20.46
2023-05-01T15:59:56.233Z,20.72
2023-05-01T16:05:06.569Z,21.09
2023-05-01T16:10:17.258Z,21.23
2023-05-01T16:15:27.240Z,21.24
2023-05-01T16:20:46.155Z,21.41
2023-05-01T16:25:56.217Z,21.19
2023-05-01T16:31:16.015Z,20.80
2023-05-01T16:36:38.295Z,20.55
2023-05-01T16:41:51.190Z,20.63
2023-05-01T16:47:03.769Z,20.74
2023-05-01T16:52:15.369Z,20.56
2023-05-01T16:57:25.314Z,20.34
2023-05-01T17:02:37.291Z,20.00
2023-05-01T17:07:47.128Z,19.91
2023-05-01T17:12:56.942Z,20.26
2023-05-01T17:18:07.323Z,20.20
2023-05-01T17:23:17.531Z,19.68
2023-05-01T17:28:27.528Z,18.72
2023-05-01T17:33:37.506Z,17.68
2023-05-01T17:38:47.441Z,17.00
2023-05-01T17:43:57.494Z,16.45
2023-05-01T17:49:07.884Z,15.92
2023-05-01T17:54:18.079Z,15.51
2023-05-01T17:59:30.962Z,15.17
2023-05-01T18:04:40.967Z,14.85
2023-05-01T18:09:50.861Z,14.60
2023-05-01T18:15:01.164Z,14.37
2023-05-01T18:20:13.166Z,14.18
2023-05-01T18:25:23.413Z,14.02
2023-05-01T18:30:33.317Z,13.92
2023-05-01T18:35:45.247Z,13.80
2023-05-01T18:40:55.004Z,13.70
2023-05-01T18:46:04.923Z,13.59
2023-05-01T18:51:15.856Z,13.51
2023-05-01T18:56:27.894Z,13.40
2023-05-01T19:01:38.436Z,13.28
2023-05-01T19:06:48.157Z,13.18
2023-05-01T19:11:57.930Z,13.09
2023-05-01T19:17:07.600Z,12.99
2023-05-01T19:22:18.457Z,12.89
2023-05-01T19:27:28.292Z,12.81
2023-05-01T19:32:38.658Z,12.73
2023-05-01T19:37:50.123Z,12.69
2023-05-01T19:43:00.585Z,12.62
2023-05-01T19:48:11.006Z,12.56
2023-05-01T19:53:21.308Z,12.50
2023-05-01T19:58:31.340Z,12.41
2023-05-01T20:03:41.456Z,12.31
2023-05-01T20:08:51.624Z,12.22
2023-05-01T20:14:03.767Z,12.12
2023-05-01T20:19:16.678Z,12.00
2023-05-01T20:24:26.897Z,11.90
2023-05-01T20:29:36.635Z,11.78
2023-05-01T20:34:46.620Z,11.69
2023-05-01T20:39:56.561Z,11.62
2023-05-01T20:45:07.919Z,11.52
2023-05-01T20:50:18.456Z,11.43
2023-05-01T20:55:28.446Z,11.31
2023-05-01T21:00:38.472Z,11.23
2023-05-01T21:05:48.373Z,11.18
2023-05-01T21:10:58.328Z,11.13
2023-05-01T21:16:16.054Z,11.06
2023-05-01T21:21:27.278Z,11.01
2023-05-01T21:26:38.579Z,10.98
2023-05-01T21:31:49.268Z,10.95
2023-05-01T21:36:59.343Z,10.93
2023-05-01T21:42:09.853Z,10.90
2023-05-01T21:47:20.390Z,10.83
2023-05-01T21:52:31.992Z,10.78
2023-05-01T21:57:42.852Z,10.75
2023-05-01T22:02:53.415Z,10.72
2023-05-01T22:08:03.757Z,10.68
2023-05-01T22:13:13.590Z,10.67
2023-05-01T22:18:23.379Z,10.65
2023-05-01T22:23:33.215Z,10.64
2023-05-01T22:28:43.006Z,10.65
2023-05-01T22:33:53.761Z,10.69
2023-05-01T22:39:04.344Z,10.78
2023-05-01T22:44:14.417Z,10.88
2023-05-01T22:49:24.483Z,10.95
2023-05-01T22:54:34.334Z,11.00
2023-05-01T22:59:45.915Z,11.05
2023-05-01T23:04:55.840Z,11.07
2023-05-01T23:10:06.336Z,11.09
2023-05-01T23:15:19.654Z,11.09
2023-05-01T23:20:29.795Z,11.06
2023-05-01T23:25:45.602Z,11.03
2023-05-01T23:31:00.188Z,10.99
2023-05-01T23:36:13.174Z,10.97
2023-05-01T23:41:23.074Z,10.94
2023-05-01T23:46:33.020Z,10.88
2023-05-01T23:51:43.298Z,10.83
2023-05-01T23:56:52.869Z,10.78
